sensor_id;sensor_type;location;lat;lon;timestamp;P1;durP1;ratioP1;P2;durP2;ratioP2
23280;SDS011;11809;56.390;-3.266;2023-12-20T00:01:48;1.13;;;0.60;;
23280;SDS011;11809;56.390;-3.266;2023-12-20T00:04:18;1.30;;;0.60;;
23280;SDS011;11809;56.390;-3.266;2023-12-20T00:06:49;1.48;;;0.60;;
23280;SDS011;11809;56.390;-3.266;2023-12-20T00:09:20;1.45;;;0.65;;
23280;SDS011;11809;56.390;-3.266;2023-12-20T00:11:50;0.85;;;0.50;;
23280;SDS011;11809;56.390;-3.266;2023-12-20T00:14:23;1.20;;;0.47;;
23280;SDS011;11809;56.390;-3.266;2023-12-20T00:16:53;1.35;;;0.80;;
23280;SDS011;11809;56.390;-3.266;2023-12-20T00:19:24;2.15;;;0.50;;
23280;SDS011;11809;56.390;-3.266;2023-12-20T00:21:55;1.92;;;0.43;;
23280;SDS011;11809;56.390;-3.266;2023-12-20T00:24:26;1.60;;;0.50;;
23280;SDS011;11809;56.390;-3.266;2023-12-20T00:26:57;0.85;;;0.43;;
23280;SDS011;11809;56.390;-3.266;2023-12-20T00:29:30;2.03;;;0.60;;
23280;SDS011;11809;56.390;-3.266;2023-12-20T00:32:00;1.20;;;0.45;;
23280;SDS011;11809;56.390;-3.266;2023-12-20T00:34:31;0.90;;;0.60;;
23280;SDS011;11809;56.390;-3.266;2023-12-20T00:37:02;1.95;;;0.50;;
23280;SDS011;11809;56.390;-3.266;2023-12-20T00:39:32;1.42;;;0.50;;
23280;SDS011;11809;56.390;-3.266;2023-12-20T00:42:04;1.98;;;0.47;;
23280;SDS011;11809;56.390;-3.266;2023-12-20T00:44:37;1.70;;;0.60;;
23280;SDS011;11809;56.390;-3.266;2023-12-20T00:47:08;1.30;;;0.43;;
23280;SDS011;11809;56.390;-3.266;2023-12-20T00:49:38;0.75;;;0.45;;
23280;SDS011;11809;56.390;-3.266;2023-12-20T00:52:09;1.50;;;0.60;;
23280;SDS011;11809;56.390;-3.266;2023-12-20T00:54:40;1.85;;;0.63;;
23280;SDS011;11809;56.390;-3.266;2023-12-20T00:57:11;0.47;;;0.47;;
23280;SDS011;11809;56.390;-3.266;2023-12-20T00:59:44;1.77;;;0.40;;
23280;SDS011;11809;56.390;-3.266;2023-12-20T01:02:15;0.82;;;0.40;;
23280;SDS011;11809;56.390;-3.266;2023-12-20T01:07:16;0.90;;;0.40;;
23280;SDS011;11809;56.390;-3.266;2023-12-20T01:09:46;1.15;;;0.50;;
23280;SDS011;11809;56.390;-3.266;2023-12-20T01:12:17;3.35;;;0.50;;
23280;SDS011;11809;56.390;-3.266;2023-12-20T01:14:49;1.10;;;0.40;;
23280;SDS011;11809;56.390;-3.266;2023-12-20T01:17:20;1.65;;;0.40;;
23280;SDS011;11809;56.390;-3.266;2023-12-20T01:19:50;0.32;;;0.30;;
23280;SDS011;11809;56.390;-3.266;2023-12-20T01:22:21;2.05;;;0.30;;
23280;SDS011;11809;56.390;-3.266;2023-12-20T01:24:51;0.65;;;0.40;;
23280;SDS011;11809;56.390;-3.266;2023-12-20T01:27:22;0.68;;;0.40;;
23280;SDS011;11809;56.390;-3.266;2023-12-20T01:29:56;0.85;;;0.30;;
23280;SDS011;11809;56.390;-3.266;2023-12-20T01:32:26;0.63;;;0.40;;
23280;SDS011;11809;56.390;-3.266;2023-12-20T01:34:57;0.25;;;0.20;;
23280;SDS011;11809;56.390;-3.266;2023-12-20T01:37:29;1.55;;;0.30;;
23280;SDS011;11809;56.390;-3.266;2023-12-20T01:39:59;0.38;;;0.30;;
23280;SDS011;11809;56.390;-3.266;2023-12-20T01:42:30;1.65;;;0.50;;
23280;SDS011;11809;56.390;-3.266;2023-12-20T01:45:03;0.47;;;0.37;;
23280;SDS011;11809;56.390;-3.266;2023-12-20T01:47:34;0.60;;;0.28;;
23280;SDS011;11809;56.390;-3.266;2023-12-20T01:50:06;0.63;;;0.40;;
23280;SDS011;11809;56.390;-3.266;2023-12-20T01:52:37;0.65;;;0.38;;
23280;SDS011;11809;56.390;-3.266;2023-12-20T01:55:08;0.50;;;0.20;;
23280;SDS011;11809;56.390;-3.266;2023-12-20T01:57:42;0.38;;;0.30;;
23280;SDS011;11809;56.390;-3.266;2023-12-20T02:00:17;0.52;;;0.30;;
23280;SDS011;11809;56.390;-3.266;2023-12-20T02:02:50;0.70;;;0.55;;
23280;SDS011;11809;56.390;-3.266;2023-12-20T02:05:22;0.85;;;0.30;;
23280;SDS011;11809;56.390;-3.266;2023-12-20T02:07:54;0.40;;;0.30;;
23280;SDS011;11809;56.390;-3.266;2023-12-20T02:10:25;0.22;;;0.22;;
23280;SDS011;11809;56.390;-3.266;2023-12-20T02:12:56;1.10;;;0.40;;
23280;SDS011;11809;56.390;-3.266;2023-12-20T02:15:29;0.88;;;0.40;;
23280;SDS011;11809;56.390;-3.266;2023-12-20T02:18:00;0.50;;;0.30;;
23280;SDS011;11809;56.390;-3.266;2023-12-20T02:20:31;2.47;;;0.50;;
23280;SDS011;11809;56.390;-3.266;2023-12-20T02:23:04;0.70;;;0.30;;
23280;SDS011;11809;56.390;-3.266;2023-12-20T02:25:34;1.52;;;0.30;;
23280;SDS011;11809;56.390;-3.266;2023-12-20T02:28:05;0.68;;;0.40;;
23280;SDS011;11809;56.390;-3.266;2023-12-20T02:30:35;0.38;;;0.30;;
23280;SDS011;11809;56.390;-3.266;2023-12-20T02:33:07;1.70;;;0.45;;
23280;SDS011;11809;56.390;-3.266;2023-12-20T02:35:41;0.85;;;0.30;;
23280;SDS011;11809;56.390;-3.266;2023-12-20T02:38:14;0.77;;;0.40;;
23280;SDS011;11809;56.390;-3.266;2023-12-20T02:40:45;0.90;;;0.40;;
23280;SDS011;11809;56.390;-3.266;2023-12-20T02:43:15;1.30;;;0.50;;
23280;SDS011;11809;56.390;-3.266;2023-12-20T02:45:46;0.70;;;0.40;;
23280;SDS011;11809;56.390;-3.266;2023-12-20T02:48:17;0.67;;;0.40;;
23280;SDS011;11809;56.390;-3.266;2023-12-20T02:53:21;1.15;;;0.50;;
23280;SDS011;11809;56.390;-3.266;2023-12-20T02:55:51;0.55;;;0.38;;
23280;SDS011;11809;56.390;-3.266;2023-12-20T02:58:22;1.35;;;0.50;;
23280;SDS011;11809;56.390;-3.266;2023-12-20T03:00:52;1.63;;;0.60;;
23280;SDS011;11809;56.390;-3.266;2023-12-20T03:03:23;1.88;;;0.50;;
23280;SDS011;11809;56.390;-3.266;2023-12-20T03:05:53;1.95;;;0.80;;
23280;SDS011;11809;56.390;-3.266;2023-12-20T03:08:26;0.95;;;0.50;;
23280;SDS011;11809;56.390;-3.266;2023-12-20T03:10:58;1.38;;;0.60;;
23280;SDS011;11809;56.390;-3.266;2023-12-20T03:13:29;1.73;;;0.60;;
23280;SDS011;11809;56.390;-3.266;2023-12-20T03:15:59;2.08;;;0.70;;
23280;SDS011;11809;56.390;-3.266;2023-12-20T03:18:30;0.88;;;0.40;;
23280;SDS011;11809;56.390;-3.266;2023-12-20T03:21:00;1.50;;;0.45;;
23280;SDS011;11809;56.390;-3.266;2023-12-20T03:23:33;1.88;;;0.50;;
23280;SDS011;11809;56.390;-3.266;2023-12-20T03:26:06;1.23;;;0.50;;
23280;SDS011;11809;56.390;-3.266;2023-12-20T03:28:37;1.77;;;0.68;;
23280;SDS011;11809;56.390;-3.266;2023-12-20T03:31:09;1.73;;;0.50;;
23280;SDS011;11809;56.390;-3.266;2023-12-20T03:33:40;2.15;;;0.40;;
23280;SDS011;11809;56.390;-3.266;2023-12-20T03:36:10;1.23;;;0.55;;
23280;SDS011;11809;56.390;-3.266;2023-12-20T03:38:43;1.67;;;0.50;;
23280;SDS011;11809;56.390;-3.266;2023-12-20T03:41:14;1.00;;;0.57;;
23280;SDS011;11809;56.390;-3.266;2023-12-20T03:43:44;3.05;;;0.70;;
23280;SDS011;11809;56.390;-3.266;2023-12-20T03:46:15;1.00;;;0.40;;
23280;SDS011;11809;56.390;-3.266;2023-12-20T03:48:45;1.40;;;0.43;;
23280;SDS011;11809;56.390;-3.266;2023-12-20T03:51:16;2.43;;;0.80;;
23280;SDS011;11809;56.390;-3.266;2023-12-20T03:53:49;2.17;;;0.70;;
23280;SDS011;11809;56.390;-3.266;2023-12-20T03:56:19;1.63;;;0.55;;
23280;SDS011;11809;56.390;-3.266;2023-12-20T03:58:50;1.92;;;0.40;;
23280;SDS011;11809;56.390;-3.266;2023-12-20T04:01:20;1.90;;;0.50;;
23280;SDS011;11809;56.390;-3.266;2023-12-20T04:03:51;2.38;;;0.68;;
23280;SDS011;11809;56.390;-3.266;2023-12-20T04:06:21;1.40;;;0.57;;
23280;SDS011;11809;56.390;-3.266;2023-12-20T04:08:54;1.15;;;0.63;;
23280;SDS011;11809;56.390;-3.266;2023-12-20T04:11:25;1.63;;;0.55;;
23280;SDS011;11809;56.390;-3.266;2023-12-20T04:13:55;1.08;;;0.35;;
23280;SDS011;11809;56.390;-3.266;2023-12-20T04:16:26;1.13;;;0.60;;
23280;SDS011;11809;56.390;-3.266;2023-12-20T04:18:56;1.43;;;0.37;;
23280;SDS011;11809;56.390;-3.266;2023-12-20T04:21:26;1.42;;;0.47;;
23280;SDS011;11809;56.390;-3.266;2023-12-20T04:23:59;2.13;;;0.80;;
23280;SDS011;11809;56.390;-3.266;2023-12-20T04:26:30;1.23;;;0.47;;
23280;SDS011;11809;56.390;-3.266;2023-12-20T04:29:00;1.35;;;0.52;;
23280;SDS011;11809;56.390;-3.266;2023-12-20T04:31:31;1.20;;;0.60;;
23280;SDS011;11809;56.390;-3.266;2023-12-20T04:34:01;1.20;;;0.52;;
23280;SDS011;11809;56.390;-3.266;2023-12-20T04:36:32;1.40;;;0.57;;
23280;SDS011;11809;56.390;-3.266;2023-12-20T04:39:05;1.33;;;0.50;;
23280;SDS011;11809;56.390;-3.266;2023-12-20T04:41:35;1.30;;;0.47;;
23280;SDS011;11809;56.390;-3.266;2023-12-20T04:44:06;1.45;;;0.50;;
23280;SDS011;11809;56.390;-3.266;2023-12-20T04:46:36;1.70;;;0.57;;
23280;SDS011;11809;56.390;-3.266;2023-12-20T04:49:06;0.75;;;0.40;;
23280;SDS011;11809;56.390;-3.266;2023-12-20T04:51:37;1.10;;;0.45;;
23280;SDS011;11809;56.390;-3.266;2023-12-20T04:54:10;1.48;;;0.60;;
23280;SDS011;11809;56.390;-3.266;2023-12-20T04:56:41;0.93;;;0.43;;
23280;SDS011;11809;56.390;-3.266;2023-12-20T04:59:11;1.05;;;0.55;;
23280;SDS011;11809;56.390;-3.266;2023-12-20T05:01:42;1.23;;;0.60;;
23280;SDS011;11809;56.390;-3.266;2023-12-20T05:04:12;1.60;;;0.45;;
23280;SDS011;11809;56.390;-3.266;2023-12-20T05:06:43;1.48;;;0.43;;
23280;SDS011;11809;56.390;-3.266;2023-12-20T05:09:16;1.85;;;0.40;;
23280;SDS011;11809;56.390;-3.266;2023-12-20T05:11:46;1.48;;;0.50;;
23280;SDS011;11809;56.390;-3.266;2023-12-20T05:14:17;1.27;;;0.57;;
23280;SDS011;11809;56.390;-3.266;2023-12-20T05:16:47;0.82;;;0.50;;
23280;SDS011;11809;56.390;-3.266;2023-12-20T05:19:18;2.33;;;0.70;;
23280;SDS011;11809;56.390;-3.266;2023-12-20T05:21:48;1.40;;;0.57;;
23280;SDS011;11809;56.390;-3.266;2023-12-20T05:24:21;1.52;;;0.50;;
23280;SDS011;11809;56.390;-3.266;2023-12-20T05:26:52;1.40;;;0.50;;
23280;SDS011;11809;56.390;-3.266;2023-12-20T05:29:22;1.50;;;0.70;;
23280;SDS011;11809;56.390;-3.266;2023-12-20T05:31:53;2.03;;;0.65;;
23280;SDS011;11809;56.390;-3.266;2023-12-20T05:34:24;1.13;;;0.50;;
23280;SDS011;11809;56.390;-3.266;2023-12-20T05:36:54;2.83;;;0.70;;
23280;SDS011;11809;56.390;-3.266;2023-12-20T05:39:27;1.40;;;0.70;;
23280;SDS011;11809;56.390;-3.266;2023-12-20T05:41:58;1.77;;;0.70;;
23280;SDS011;11809;56.390;-3.266;2023-12-20T05:44:28;1.98;;;0.52;;
23280;SDS011;11809;56.390;-3.266;2023-12-20T05:46:59;2.23;;;0.70;;
23280;SDS011;11809;56.390;-3.266;2023-12-20T05:49:29;1.13;;;0.70;;
23280;SDS011;11809;56.390;-3.266;2023-12-20T05:51:59;1.88;;;0.63;;
23280;SDS011;11809;56.390;-3.266;2023-12-20T05:54:32;1.30;;;0.50;;
23280;SDS011;11809;56.390;-3.266;2023-12-20T05:57:03;2.60;;;0.60;;
23280;SDS011;11809;56.390;-3.266;2023-12-20T06:02:04;2.08;;;0.57;;
23280;SDS011;11809;56.390;-3.266;2023-12-20T06:04:35;2.35;;;0.73;;
23280;SDS011;11809;56.390;-3.266;2023-12-20T06:07:05;2.45;;;0.80;;
23280;SDS011;11809;56.390;-3.266;2023-12-20T06:09:38;1.90;;;0.57;;
23280;SDS011;11809;56.390;-3.266;2023-12-20T06:12:09;1.05;;;0.63;;
23280;SDS011;11809;56.390;-3.266;2023-12-20T06:14:40;1.80;;;0.67;;
23280;SDS011;11809;56.390;-3.266;2023-12-20T06:17:10;1.60;;;0.80;;
23280;SDS011;11809;56.390;-3.266;2023-12-20T06:19:41;2.45;;;0.70;;
23280;SDS011;11809;56.390;-3.266;2023-12-20T06:22:15;1.40;;;0.60;;
23280;SDS011;11809;56.390;-3.266;2023-12-20T06:24:48;1.67;;;0.60;;
23280;SDS011;11809;56.390;-3.266;2023-12-20T06:27:19;3.58;;;0.60;;
23280;SDS011;11809;56.390;-3.266;2023-12-20T06:29:49;3.35;;;0.90;;
23280;SDS011;11809;56.390;-3.266;2023-12-20T06:32:20;4.88;;;0.80;;
23280;SDS011;11809;56.390;-3.266;2023-12-20T06:34:51;4.35;;;0.90;;
23280;SDS011;11809;56.390;-3.266;2023-12-20T06:37:21;3.88;;;1.00;;
23280;SDS011;11809;56.390;-3.266;2023-12-20T06:39:54;10.02;;;1.10;;
23280;SDS011;11809;56.390;-3.266;2023-12-20T06:42:25;6.97;;;1.20;;
23280;SDS011;11809;56.390;-3.266;2023-12-20T06:45:02;14.80;;;1.48;;
23280;SDS011;11809;56.390;-3.266;2023-12-20T06:47:34;9.88;;;1.73;;
23280;SDS011;11809;56.390;-3.266;2023-12-20T06:50:05;6.68;;;0.93;;
23280;SDS011;11809;56.390;-3.266;2023-12-20T06:55:09;8.00;;;1.17;;
23280;SDS011;11809;56.390;-3.266;2023-12-20T06:57:39;6.50;;;1.13;;
23280;SDS011;11809;56.390;-3.266;2023-12-20T07:00:11;5.10;;;0.88;;
23280;SDS011;11809;56.390;-3.266;2023-12-20T07:02:43;4.50;;;0.80;;
23280;SDS011;11809;56.390;-3.266;2023-12-20T07:05:16;4.05;;;0.88;;
23280;SDS011;11809;56.390;-3.266;2023-12-20T07:07:47;6.95;;;0.88;;
23280;SDS011;11809;56.390;-3.266;2023-12-20T07:10:20;7.53;;;0.75;;
23280;SDS011;11809;56.390;-3.266;2023-12-20T07:12:51;4.95;;;0.70;;
23280;SDS011;11809;56.390;-3.266;2023-12-20T07:15:22;5.07;;;0.90;;
23280;SDS011;11809;56.390;-3.266;2023-12-20T07:17:53;3.17;;;0.80;;
23280;SDS011;11809;56.390;-3.266;2023-12-20T07:20:24;3.42;;;0.80;;
23280;SDS011;11809;56.390;-3.266;2023-12-20T07:22:55;3.08;;;0.93;;
23280;SDS011;11809;56.390;-3.266;2023-12-20T07:25:28;2.03;;;0.65;;
23280;SDS011;11809;56.390;-3.266;2023-12-20T07:28:03;3.47;;;0.77;;
23280;SDS011;11809;56.390;-3.266;2023-12-20T07:30:34;11.63;;;1.77;;
23280;SDS011;11809;56.390;-3.266;2023-12-20T07:33:05;16.55;;;1.90;;
23280;SDS011;11809;56.390;-3.266;2023-12-20T07:35:36;6.40;;;1.40;;
23280;SDS011;11809;56.390;-3.266;2023-12-20T07:38:07;11.80;;;1.40;;
23280;SDS011;11809;56.390;-3.266;2023-12-20T07:40:41;6.47;;;1.08;;
23280;SDS011;11809;56.390;-3.266;2023-12-20T07:43:12;7.32;;;1.23;;
23280;SDS011;11809;56.390;-3.266;2023-12-20T07:45:43;8.88;;;1.33;;
23280;SDS011;11809;56.390;-3.266;2023-12-20T07:48:14;5.63;;;1.00;;
23280;SDS011;11809;56.390;-3.266;2023-12-20T07:50:44;9.77;;;1.20;;
23280;SDS011;11809;56.390;-3.266;2023-12-20T07:53:15;9.63;;;1.30;;
23280;SDS011;11809;56.390;-3.266;2023-12-20T07:55:48;7.93;;;1.50;;
23280;SDS011;11809;56.390;-3.266;2023-12-20T07:58:19;11.18;;;1.25;;
23280;SDS011;11809;56.390;-3.266;2023-12-20T08:01:06;12.25;;;1.00;;
23280;SDS011;11809;56.390;-3.266;2023-12-20T08:03:37;7.32;;;1.08;;
23280;SDS011;11809;56.390;-3.266;2023-12-20T08:06:07;23.98;;;1.70;;
23280;SDS011;11809;56.390;-3.266;2023-12-20T08:08:38;16.60;;;1.67;;
23280;SDS011;11809;56.390;-3.266;2023-12-20T08:11:13;6.10;;;1.05;;
23280;SDS011;11809;56.390;-3.266;2023-12-20T08:13:44;8.13;;;1.00;;
23280;SDS011;11809;56.390;-3.266;2023-12-20T08:16:14;3.97;;;1.05;;
23280;SDS011;11809;56.390;-3.266;2023-12-20T08:18:45;6.43;;;1.00;;
23280;SDS011;11809;56.390;-3.266;2023-12-20T08:21:16;3.15;;;0.80;;
23280;SDS011;11809;56.390;-3.266;2023-12-20T08:23:47;5.20;;;0.80;;
23280;SDS011;11809;56.390;-3.266;2023-12-20T08:26:21;17.38;;;1.30;;
23280;SDS011;11809;56.390;-3.266;2023-12-20T08:28:51;3.67;;;0.95;;
23280;SDS011;11809;56.390;-3.266;2023-12-20T08:31:25;12.85;;;1.10;;
23280;SDS011;11809;56.390;-3.266;2023-12-20T08:33:56;7.15;;;0.80;;
23280;SDS011;11809;56.390;-3.266;2023-12-20T08:36:26;8.43;;;1.08;;
23280;SDS011;11809;56.390;-3.266;2023-12-20T08:38:57;6.67;;;1.27;;
23280;SDS011;11809;56.390;-3.266;2023-12-20T08:41:30;7.10;;;0.85;;
23280;SDS011;11809;56.390;-3.266;2023-12-20T08:44:01;8.48;;;1.20;;
23280;SDS011;11809;56.390;-3.266;2023-12-20T08:46:31;5.53;;;0.88;;
23280;SDS011;11809;56.390;-3.266;2023-12-20T08:49:02;3.92;;;0.88;;
23280;SDS011;11809;56.390;-3.266;2023-12-20T08:51:33;5.22;;;1.08;;
23280;SDS011;11809;56.390;-3.266;2023-12-20T08:54:07;6.47;;;1.05;;
23280;SDS011;11809;56.390;-3.266;2023-12-20T08:56:40;5.93;;;0.93;;
23280;SDS011;11809;56.390;-3.266;2023-12-20T08:59:10;4.43;;;0.77;;
23280;SDS011;11809;56.390;-3.266;2023-12-20T09:01:41;4.65;;;1.00;;
23280;SDS011;11809;56.390;-3.266;2023-12-20T09:04:11;4.60;;;1.20;;
23280;SDS011;11809;56.390;-3.266;2023-12-20T09:06:42;4.97;;;0.82;;
23280;SDS011;11809;56.390;-3.266;2023-12-20T09:09:13;10.70;;;1.40;;
23280;SDS011;11809;56.390;-3.266;2023-12-20T09:11:46;5.68;;;0.93;;
23280;SDS011;11809;56.390;-3.266;2023-12-20T09:14:18;4.00;;;1.00;;
23280;SDS011;11809;56.390;-3.266;2023-12-20T09:16:49;7.07;;;1.20;;
23280;SDS011;11809;56.390;-3.266;2023-12-20T09:19:22;37.47;;;2.58;;
23280;SDS011;11809;56.390;-3.266;2023-12-20T09:21:53;9.13;;;1.17;;
23280;SDS011;11809;56.390;-3.266;2023-12-20T09:24:23;5.15;;;1.20;;
23280;SDS011;11809;56.390;-3.266;2023-12-20T09:26:56;19.83;;;1.30;;
23280;SDS011;11809;56.390;-3.266;2023-12-20T09:29:27;27.80;;;1.90;;
23280;SDS011;11809;56.390;-3.266;2023-12-20T09:31:58;6.25;;;0.80;;
23280;SDS011;11809;56.390;-3.266;2023-12-20T09:37:00;19.50;;;1.55;;
23280;SDS011;11809;56.390;-3.266;2023-12-20T09:39:30;8.60;;;1.13;;
23280;SDS011;11809;56.390;-3.266;2023-12-20T09:42:04;9.90;;;0.98;;
23280;SDS011;11809;56.390;-3.266;2023-12-20T09:44:35;5.60;;;0.88;;
23280;SDS011;11809;56.390;-3.266;2023-12-20T09:47:12;7.85;;;0.93;;
23280;SDS011;11809;56.390;-3.266;2023-12-20T09:49:45;7.65;;;1.13;;
23280;SDS011;11809;56.390;-3.266;2023-12-20T09:52:16;6.90;;;1.02;;
23280;SDS011;11809;56.390;-3.266;2023-12-20T09:54:48;3.00;;;0.70;;
23280;SDS011;11809;56.390;-3.266;2023-12-20T09:57:25;4.95;;;0.73;;
23280;SDS011;11809;56.390;-3.266;2023-12-20T09:59:55;7.85;;;1.17;;
23280;SDS011;11809;56.390;-3.266;2023-12-20T10:02:26;6.53;;;0.93;;
23280;SDS011;11809;56.390;-3.266;2023-12-20T10:04:59;5.30;;;1.00;;
23280;SDS011;11809;56.390;-3.266;2023-12-20T10:07:31;7.40;;;1.10;;
23280;SDS011;11809;56.390;-3.266;2023-12-20T10:10:01;10.00;;;1.20;;
23280;SDS011;11809;56.390;-3.266;2023-12-20T10:12:36;6.55;;;1.08;;
23280;SDS011;11809;56.390;-3.266;2023-12-20T10:15:07;5.47;;;1.17;;
23280;SDS011;11809;56.390;-3.266;2023-12-20T10:17:39;9.50;;;1.20;;
23280;SDS011;11809;56.390;-3.266;2023-12-20T10:20:10;3.75;;;1.13;;
23280;SDS011;11809;56.390;-3.266;2023-12-20T10:25:11;2.88;;;0.80;;
23280;SDS011;11809;56.390;-3.266;2023-12-20T10:27:45;3.83;;;1.10;;
23280;SDS011;11809;56.390;-3.266;2023-12-20T10:30:16;4.80;;;0.80;;
23280;SDS011;11809;56.390;-3.266;2023-12-20T10:32:46;4.40;;;0.90;;
23280;SDS011;11809;56.390;-3.266;2023-12-20T10:35:19;4.95;;;0.98;;
23280;SDS011;11809;56.390;-3.266;2023-12-20T10:37:49;9.20;;;1.23;;
23280;SDS011;11809;56.390;-3.266;2023-12-20T10:40:25;11.52;;;1.58;;
23280;SDS011;11809;56.390;-3.266;2023-12-20T10:43:02;4.25;;;1.15;;
23280;SDS011;11809;56.390;-3.266;2023-12-20T10:45:33;8.98;;;1.25;;
23280;SDS011;11809;56.390;-3.266;2023-12-20T10:48:04;6.80;;;1.50;;
23280;SDS011;11809;56.390;-3.266;2023-12-20T10:50:35;3.53;;;0.80;;
23280;SDS011;11809;56.390;-3.266;2023-12-20T10:53:07;3.25;;;0.98;;
23280;SDS011;11809;56.390;-3.266;2023-12-20T10:55:39;11.60;;;1.52;;
23280;SDS011;11809;56.390;-3.266;2023-12-20T10:58:13;11.02;;;1.02;;
23280;SDS011;11809;56.390;-3.266;2023-12-20T11:00:44;9.60;;;1.35;;
23280;SDS011;11809;56.390;-3.266;2023-12-20T11:03:17;6.28;;;0.80;;
23280;SDS011;11809;56.390;-3.266;2023-12-20T11:05:53;9.00;;;1.15;;
23280;SDS011;11809;56.390;-3.266;2023-12-20T11:08:30;7.75;;;1.23;;
23280;SDS011;11809;56.390;-3.266;2023-12-20T11:11:06;9.52;;;0.90;;
23280;SDS011;11809;56.390;-3.266;2023-12-20T11:13:48;3.88;;;1.17;;
23280;SDS011;11809;56.390;-3.266;2023-12-20T11:16:31;5.75;;;0.68;;
23280;SDS011;11809;56.390;-3.266;2023-12-20T11:19:17;5.03;;;0.70;;
23280;SDS011;11809;56.390;-3.266;2023-12-20T11:21:48;5.55;;;0.90;;
23280;SDS011;11809;56.390;-3.266;2023-12-20T11:24:21;3.83;;;0.52;;
23280;SDS011;11809;56.390;-3.266;2023-12-20T11:26:55;9.73;;;1.05;;
23280;SDS011;11809;56.390;-3.266;2023-12-20T11:29:32;6.03;;;0.60;;
23280;SDS011;11809;56.390;-3.266;2023-12-20T11:32:10;4.68;;;0.80;;
23280;SDS011;11809;56.390;-3.266;2023-12-20T11:34:58;5.47;;;0.60;;
23280;SDS011;11809;56.390;-3.266;2023-12-20T11:37:31;3.97;;;0.30;;
23280;SDS011;11809;56.390;-3.266;2023-12-20T11:40:11;6.68;;;0.75;;
23280;SDS011;11809;56.390;-3.266;2023-12-20T11:42:44;3.67;;;0.50;;
23280;SDS011;11809;56.390;-3.266;2023-12-20T11:45:19;2.38;;;0.57;;
23280;SDS011;11809;56.390;-3.266;2023-12-20T11:47:56;6.55;;;0.40;;
23280;SDS011;11809;56.390;-3.266;2023-12-20T11:50:28;2.22;;;0.60;;
23280;SDS011;11809;56.390;-3.266;2023-12-20T11:52:59;5.18;;;0.52;;
23280;SDS011;11809;56.390;-3.266;2023-12-20T11:55:29;3.75;;;0.50;;
23280;SDS011;11809;56.390;-3.266;2023-12-20T11:58:03;3.92;;;0.50;;
23280;SDS011;11809;56.390;-3.266;2023-12-20T12:00:38;3.72;;;0.50;;
23280;SDS011;11809;56.390;-3.266;2023-12-20T12:03:09;1.70;;;0.30;;
23280;SDS011;11809;56.390;-3.266;2023-12-20T12:05:40;1.45;;;0.40;;
23280;SDS011;11809;56.390;-3.266;2023-12-20T12:08:11;1.85;;;0.30;;
23280;SDS011;11809;56.390;-3.266;2023-12-20T12:10:41;4.72;;;0.50;;
23280;SDS011;11809;56.390;-3.266;2023-12-20T12:13:12;2.05;;;0.55;;
23280;SDS011;11809;56.390;-3.266;2023-12-20T12:15:47;4.82;;;0.40;;
23280;SDS011;11809;56.390;-3.266;2023-12-20T12:18:18;10.18;;;0.70;;
23280;SDS011;11809;56.390;-3.266;2023-12-20T12:20:49;8.80;;;0.70;;
23280;SDS011;11809;56.390;-3.266;2023-12-20T12:25:53;2.28;;;0.57;;
23280;SDS011;11809;56.390;-3.266;2023-12-20T12:28:25;3.58;;;0.65;;
23280;SDS011;11809;56.390;-3.266;2023-12-20T12:31:02;18.02;;;1.20;;
23280;SDS011;11809;56.390;-3.266;2023-12-20T12:33:33;11.65;;;0.95;;
23280;SDS011;11809;56.390;-3.266;2023-12-20T12:38:35;5.65;;;0.68;;
23280;SDS011;11809;56.390;-3.266;2023-12-20T12:41:06;7.03;;;1.08;;
23280;SDS011;11809;56.390;-3.266;2023-12-20T12:43:37;7.75;;;1.08;;
23280;SDS011;11809;56.390;-3.266;2023-12-20T12:48:41;6.57;;;1.20;;
23280;SDS011;11809;56.390;-3.266;2023-12-20T12:51:13;14.50;;;1.17;;
23280;SDS011;11809;56.390;-3.266;2023-12-20T12:53:43;18.55;;;1.58;;
23280;SDS011;11809;56.390;-3.266;2023-12-20T12:56:14;18.88;;;1.38;;
23280;SDS011;11809;56.390;-3.266;2023-12-20T13:01:18;19.92;;;1.90;;
23280;SDS011;11809;56.390;-3.266;2023-12-20T13:03:49;22.83;;;2.35;;
23280;SDS011;11809;56.390;-3.266;2023-12-20T13:06:21;15.68;;;1.40;;
23280;SDS011;11809;56.390;-3.266;2023-12-20T13:08:52;28.90;;;3.10;;
23280;SDS011;11809;56.390;-3.266;2023-12-20T13:11:23;22.67;;;2.10;;
23280;SDS011;11809;56.390;-3.266;2023-12-20T13:13:54;25.17;;;1.70;;
23280;SDS011;11809;56.390;-3.266;2023-12-20T13:16:28;31.67;;;2.00;;
23280;SDS011;11809;56.390;-3.266;2023-12-20T13:19:01;26.38;;;1.63;;
23280;SDS011;11809;56.390;-3.266;2023-12-20T13:21:32;29.50;;;2.10;;
23280;SDS011;11809;56.390;-3.266;2023-12-20T13:24:03;25.63;;;1.90;;
23280;SDS011;11809;56.390;-3.266;2023-12-20T13:26:34;21.58;;;1.60;;
23280;SDS011;11809;56.390;-3.266;2023-12-20T13:29:06;30.40;;;1.98;;
23280;SDS011;11809;56.390;-3.266;2023-12-20T13:31:40;12.88;;;1.45;;
23280;SDS011;11809;56.390;-3.266;2023-12-20T13:34:11;3.92;;;1.05;;
23280;SDS011;11809;56.390;-3.266;2023-12-20T13:36:44;5.63;;;0.60;;
23280;SDS011;11809;56.390;-3.266;2023-12-20T13:39:17;4.72;;;0.57;;
23280;SDS011;11809;56.390;-3.266;2023-12-20T13:41:48;5.40;;;0.40;;
23280;SDS011;11809;56.390;-3.266;2023-12-20T13:44:19;1.55;;;0.50;;
23280;SDS011;11809;56.390;-3.266;2023-12-20T13:46:52;3.35;;;0.30;;
23280;SDS011;11809;56.390;-3.266;2023-12-20T13:49:23;2.47;;;0.30;;
23280;SDS011;11809;56.390;-3.266;2023-12-20T13:54:25;3.88;;;0.40;;
23280;SDS011;11809;56.390;-3.266;2023-12-20T13:56:56;11.38;;;0.90;;
23280;SDS011;11809;56.390;-3.266;2023-12-20T13:59:42;11.05;;;0.82;;
23280;SDS011;11809;56.390;-3.266;2023-12-20T14:02:15;16.95;;;0.98;;
23280;SDS011;11809;56.390;-3.266;2023-12-20T14:04:46;10.73;;;0.85;;
23280;SDS011;11809;56.390;-3.266;2023-12-20T14:07:16;11.25;;;1.30;;
23280;SDS011;11809;56.390;-3.266;2023-12-20T14:09:48;14.10;;;0.80;;
23280;SDS011;11809;56.390;-3.266;2023-12-20T14:12:18;10.20;;;0.55;;
23280;SDS011;11809;56.390;-3.266;2023-12-20T14:14:49;4.88;;;0.32;;
23280;SDS011;11809;56.390;-3.266;2023-12-20T14:17:25;6.00;;;0.22;;
23280;SDS011;11809;56.390;-3.266;2023-12-20T14:19:56;2.50;;;0.38;;
23280;SDS011;11809;56.390;-3.266;2023-12-20T14:22:27;3.15;;;0.40;;
23280;SDS011;11809;56.390;-3.266;2023-12-20T14:24:58;7.28;;;0.50;;
23280;SDS011;11809;56.390;-3.266;2023-12-20T14:29:59;8.48;;;1.10;;
23280;SDS011;11809;56.390;-3.266;2023-12-20T14:32:35;2.25;;;0.50;;
23280;SDS011;11809;56.390;-3.266;2023-12-20T14:35:07;2.47;;;0.40;;
23280;SDS011;11809;56.390;-3.266;2023-12-20T14:37:39;12.35;;;0.50;;
23280;SDS011;11809;56.390;-3.266;2023-12-20T14:40:12;3.30;;;0.40;;
23280;SDS011;11809;56.390;-3.266;2023-12-20T14:42:45;11.52;;;0.73;;
23280;SDS011;11809;56.390;-3.266;2023-12-20T14:45:16;9.25;;;0.65;;
23280;SDS011;11809;56.390;-3.266;2023-12-20T14:47:50;15.55;;;1.30;;
23280;SDS011;11809;56.390;-3.266;2023-12-20T14:50:21;13.10;;;1.10;;
23280;SDS011;11809;56.390;-3.266;2023-12-20T14:52:52;14.32;;;0.90;;
23280;SDS011;11809;56.390;-3.266;2023-12-20T14:55:23;8.35;;;0.60;;
23280;SDS011;11809;56.390;-3.266;2023-12-20T14:57:56;18.83;;;1.35;;
23280;SDS011;11809;56.390;-3.266;2023-12-20T15:00:26;15.30;;;1.10;;
23280;SDS011;11809;56.390;-3.266;2023-12-20T15:03:01;12.40;;;0.70;;
23280;SDS011;11809;56.390;-3.266;2023-12-20T15:05:34;6.13;;;0.60;;
23280;SDS011;11809;56.390;-3.266;2023-12-20T15:08:05;5.72;;;0.75;;
23280;SDS011;11809;56.390;-3.266;2023-12-20T15:10:38;4.15;;;0.40;;
23280;SDS011;11809;56.390;-3.266;2023-12-20T15:13:08;3.15;;;0.40;;
23280;SDS011;11809;56.390;-3.266;2023-12-20T15:18:15;2.20;;;0.28;;
23280;SDS011;11809;56.390;-3.266;2023-12-20T15:20:46;5.22;;;0.60;;
23280;SDS011;11809;56.390;-3.266;2023-12-20T15:23:17;8.35;;;0.40;;
23280;SDS011;11809;56.390;-3.266;2023-12-20T15:25:52;11.30;;;0.70;;
23280;SDS011;11809;56.390;-3.266;2023-12-20T15:28:23;3.97;;;0.68;;
23280;SDS011;11809;56.390;-3.266;2023-12-20T15:30:54;6.15;;;0.50;;
23280;SDS011;11809;56.390;-3.266;2023-12-20T15:33:27;4.78;;;0.47;;